createdAt,value
2018-11-26T00:00:02.455Z,22.40
2018-11-26T00:01:02.445Z,22.20
2018-11-26T00:02:02.425Z,20.20
2018-11-26T00:03:02.438Z,21.90
2018-11-26T00:04:02.421Z,21.30
2018-11-26T00:05:02.398Z,22.50
2018-11-26T00:06:02.385Z,20.90
2018-11-26T00:07:02.399Z,23.40
2018-11-26T00:08:02.366Z,22.30
2018-11-26T00:09:02.349Z,25.10
2018-11-26T00:10:02.349Z,22.60
2018-11-26T00:11:02.327Z,22.20
2018-11-26T00:12:02.313Z,24.50
2018-11-26T00:13:02.322Z,25.30
2018-11-26T00:14:02.301Z,22.60
2018-11-26T00:15:02.295Z,21.60
2018-11-26T00:16:02.288Z,22.90
2018-11-26T00:17:02.260Z,19.50
2018-11-26T00:18:02.252Z,22.50
2018-11-26T00:19:02.251Z,21.10
2018-11-26T00:20:02.232Z,21.80
2018-11-26T00:21:02.227Z,18.20
2018-11-26T00:22:02.216Z,19.20
2018-11-26T00:23:02.198Z,17.70
2018-11-26T00:24:02.198Z,21.20
2018-11-26T00:25:02.192Z,19.80
2018-11-26T00:26:02.177Z,19.40
2018-11-26T00:27:02.159Z,20.20
2018-11-26T00:28:02.153Z,21.40
2018-11-26T00:29:02.151Z,17.90
2018-11-26T00:30:02.123Z,21.20
2018-11-26T00:31:02.118Z,20.70
2018-11-26T00:32:02.103Z,20.90
2018-11-26T00:33:02.096Z,18.20
2018-11-26T00:34:02.109Z,20.50
2018-11-26T00:35:02.074Z,20.50
2018-11-26T00:36:02.064Z,17.80
2018-11-26T00:37:02.049Z,18.80
2018-11-26T00:38:02.039Z,18.10
2018-11-26T00:39:02.037Z,18.60
2018-11-26T00:40:02.036Z,18.10
2018-11-26T00:41:02.015Z,18.60
2018-11-26T00:42:02.035Z,18.40
2018-11-26T00:43:02.011Z,20.20
2018-11-26T00:44:02.003Z,19.70
2018-11-26T00:45:02.025Z,18.90
2018-11-26T00:46:01.964Z,17.70
2018-11-26T00:47:01.952Z,17.90
2018-11-26T00:48:01.953Z,18.60
2018-11-26T00:49:01.947Z,20.10
2018-11-26T00:50:01.919Z,19.00
2018-11-26T00:51:01.903Z,18.90
2018-11-26T00:52:01.885Z,19.00
2018-11-26T00:53:01.887Z,19.50
2018-11-26T00:54:01.869Z,19.20
2018-11-26T00:55:01.869Z,19.70
2018-11-26T00:56:01.854Z,17.60
2018-11-26T00:57:01.855Z,19.30
2018-11-26T00:58:01.829Z,20.40
2018-11-26T00:59:01.818Z,20.40
2018-11-26T01:00:01.809Z,19.60
2018-11-26T01:01:01.788Z,19.70
2018-11-26T01:02:01.799Z,19.80
2018-11-26T01:03:01.784Z,24.60
2018-11-26T01:04:01.757Z,20.70
2018-11-26T01:05:01.757Z,21.30
2018-11-26T01:06:01.741Z,20.20
2018-11-26T01:07:01.730Z,20.40
2018-11-26T01:08:01.726Z,19.90
2018-11-26T01:09:01.717Z,20.50
2018-11-26T01:10:01.708Z,23.90
2018-11-26T01:11:01.705Z,19.50
2018-11-26T01:12:01.703Z,19.60
2018-11-26T01:13:01.664Z,20.40
2018-11-26T01:14:01.667Z,18.90
2018-11-26T01:15:01.650Z,19.70
2018-11-26T01:16:01.631Z,19.40
2018-11-26T01:17:01.642Z,21.00
2018-11-26T01:18:01.611Z,20.50
2018-11-26T01:19:01.602Z,21.60
2018-11-26T01:20:01.597Z,20.30
2018-11-26T01:21:01.580Z,21.80
2018-11-26T01:22:01.583Z,20.70
2018-11-26T01:23:01.558Z,20.20
2018-11-26T01:24:01.542Z,22.50
2018-11-26T01:25:01.569Z,18.50
2018-11-26T01:26:01.526Z,21.20
2018-11-26T01:27:01.525Z,20.10
2018-11-26T01:28:01.500Z,21.50
2018-11-26T01:29:01.502Z,19.90
2018-11-26T01:30:01.483Z,19.40
2018-11-26T01:31:01.476Z,19.20
2018-11-26T01:32:01.483Z,20.20
2018-11-26T01:33:01.452Z,21.40
2018-11-26T01:34:01.438Z,21.10
2018-11-26T01:35:01.439Z,22.20
2018-11-26T01:36:01.413Z,18.70
2018-11-26T01:37:01.424Z,19.70
2018-11-26T01:38:01.404Z,18.80
2018-11-26T01:39:01.393Z,21.50
2018-11-26T01:40:01.379Z,16.60
2018-11-26T01:41:01.363Z,19.40
2018-11-26T01:42:01.365Z,18.30
2018-11-26T01:43:01.372Z,19.40
2018-11-26T01:44:01.337Z,18.00
2018-11-26T01:45:01.323Z,19.00
2018-11-26T01:46:01.309Z,19.40
2018-11-26T01:47:01.320Z,19.70
2018-11-26T01:48:01.298Z,19.00
2018-11-26T01:49:01.308Z,19.30
2018-11-26T01:50:01.269Z,19.10
2018-11-26T01:51:01.264Z,18.70
2018-11-26T01:52:01.251Z,19.10
2018-11-26T01:53:01.244Z,18.40
2018-11-26T01:54:01.240Z,18.20
2018-11-26T01:55:01.216Z,18.00
2018-11-26T01:56:01.207Z,18.90
2018-11-26T01:57:01.198Z,17.30
2018-11-26T01:58:01.209Z,20.20
2018-11-26T01:59:01.189Z,19.00
2018-11-26T02:00:01.159Z,19.60
2018-11-26T02:01:01.156Z,18.60
2018-11-26T02:02:01.144Z,18.30
2018-11-26T02:03:01.135Z,22.00
2018-11-26T02:04:01.124Z,17.30
2018-11-26T02:05:01.123Z,17.10
2018-11-26T02:06:01.096Z,18.40
2018-11-26T02:07:01.085Z,19.10
2018-11-26T02:08:01.082Z,18.00
2018-11-26T02:09:01.104Z,19.80
2018-11-26T02:10:01.065Z,18.70
2018-11-26T02:11:01.067Z,18.00
2018-11-26T02:12:01.040Z,17.80
2018-11-26T02:13:01.018Z,20.00
2018-11-26T02:14:01.051Z,17.00
2018-11-26T02:15:01.021Z,17.10
2018-11-26T02:16:00.997Z,17.70
2018-11-26T02:17:00.980Z,20.40
2018-11-26T02:18:00.971Z,17.60
2018-11-26T02:19:00.959Z,17.80
2018-11-26T02:20:00.957Z,21.00
2018-11-26T02:21:00.964Z,18.60
2018-11-26T02:22:00.927Z,19.70
2018-11-26T02:23:00.921Z,19.00
2018-11-26T02:24:00.912Z,21.80
2018-11-26T02:25:00.890Z,21.00
2018-11-26T02:26:00.896Z,18.10
2018-11-26T02:27:00.874Z,18.40
2018-11-26T02:28:00.867Z,18.70
2018-11-26T02:29:00.862Z,19.60
2018-11-26T02:30:00.844Z,20.40
2018-11-26T02:31:00.877Z,18.40
2018-11-26T02:32:00.816Z,20.20
2018-11-26T02:33:00.818Z,19.00
2018-11-26T02:34:00.809Z,17.30
2018-11-26T02:35:00.796Z,19.40
2018-11-26T02:36:00.781Z,20.30
2018-11-26T02:37:00.775Z,22.10
2018-11-26T02:38:00.762Z,17.70
2018-11-26T02:39:00.746Z,18.30
2018-11-26T02:40:00.730Z,18.30
2018-11-26T02:41:00.732Z,18.40
2018-11-26T02:42:00.731Z,18.00
2018-11-26T02:43:00.707Z,18.40
2018-11-26T02:44:00.714Z,21.30
2018-11-26T02:45:00.676Z,18.30
2018-11-26T02:46:00.763Z,19.10
2018-11-26T02:47:00.766Z,19.30
2018-11-26T02:48:00.710Z,19.40
2018-11-26T02:49:00.651Z,17.80
2018-11-26T02:50:00.627Z,18.10
2018-11-26T02:51:00.618Z,18.80
2018-11-26T02:52:00.608Z,18.00
2018-11-26T02:53:00.619Z,19.50
2018-11-26T02:54:00.586Z,17.60
2018-11-26T02:55:00.579Z,17.90
2018-11-26T02:56:00.565Z,18.40
2018-11-26T02:57:00.564Z,18.40
2018-11-26T02:58:00.544Z,20.60
2018-11-26T02:59:00.545Z,17.50
2018-11-26T03:00:00.533Z,19.10
2018-11-26T03:01:00.522Z,23.80
2018-11-26T03:02:00.499Z,18.10
2018-11-26T03:03:00.485Z,18.90
2018-11-26T03:04:00.479Z,18.40
2018-11-26T03:05:00.488Z,18.80
2018-11-26T03:06:00.459Z,16.80
2018-11-26T03:07:00.458Z,20.80
2018-11-26T03:08:00.439Z,19.90
2018-11-26T03:09:00.437Z,20.00
2018-11-26T03:10:00.411Z,18.10
2018-11-26T03:11:00.400Z,19.70
2018-11-26T03:12:00.396Z,20.60
2018-11-26T03:13:00.392Z,20.40
2018-11-26T03:14:00.386Z,19.50
2018-11-26T03:15:00.370Z,20.60
2018-11-26T03:16:00.392Z,18.90
2018-11-26T03:17:00.356Z,21.30
2018-11-26T03:18:00.333Z,21.20
2018-11-26T03:19:00.333Z,22.60
2018-11-26T03:20:00.310Z,23.30
2018-11-26T03:21:00.292Z,23.80
2018-11-26T03:22:00.301Z,19.60
2018-11-26T03:23:00.280Z,22.60
2018-11-26T03:24:00.265Z,20.70
2018-11-26T03:25:00.271Z,19.70
2018-11-26T03:26:00.245Z,20.60
2018-11-26T03:27:00.232Z,20.90
2018-11-26T03:28:00.229Z,20.50
2018-11-26T03:29:00.211Z,22.20
2018-11-26T03:30:00.217Z,21.20
2018-11-26T03:31:00.207Z,21.10
2018-11-26T03:32:00.175Z,20.20
2018-11-26T03:33:00.172Z,20.40
2018-11-26T03:34:00.157Z,20.60
2018-11-26T03:35:00.143Z,19.80
2018-11-26T03:36:00.148Z,22.00
2018-11-26T03:37:00.133Z,18.60
2018-11-26T03:38:00.122Z,21.10
2018-11-26T03:39:00.104Z,20.60
2018-11-26T03:40:00.117Z,18.30
2018-11-26T03:41:00.086Z,21.90
2018-11-26T03:42:00.093Z,21.30
2018-11-26T03:43:00.077Z,20.40
2018-11-26T03:44:00.060Z,19.50
2018-11-26T03:45:00.095Z,18.50
2018-11-26T03:46:00.033Z,22.20
2018-11-26T03:47:00.024Z,21.00
2018-11-26T03:48:00.022Z,19.90
2018-11-26T03:48:59.991Z,22.20
2018-11-26T03:49:59.997Z,21.70
2018-11-26T03:50:59.975Z,22.40
2018-11-26T03:51:59.969Z,20.70
2018-11-26T03:52:59.954Z,19.40
2018-11-26T03:53:59.944Z,20.40
2018-11-26T03:54:59.940Z,22.80
2018-11-26T03:55:59.917Z,20.10
2018-11-26T03:56:59.914Z,21.70
2018-11-26T03:57:59.901Z,20.30
2018-11-26T03:58:59.888Z,22.80
2018-11-26T03:59:59.901Z,19.00
2018-11-26T04:00:59.864Z,18.70
2018-11-26T04:01:59.855Z,19.90
2018-11-26T04:02:59.862Z,19.60
2018-11-26T04:03:59.847Z,21.50
2018-11-26T04:04:59.834Z,19.60
2018-11-26T04:05:59.835Z,20.40
2018-11-26T04:06:59.804Z,19.60
2018-11-26T04:07:59.789Z,21.40
2018-11-26T04:08:59.784Z,20.80
2018-11-26T04:09:59.776Z,18.70
2018-11-26T04:10:59.781Z,22.20
2018-11-26T04:11:59.761Z,18.40
2018-11-26T04:12:59.733Z,18.90
2018-11-26T04:13:59.728Z,19.50
2018-11-26T04:14:59.715Z,20.20
2018-11-26T04:15:59.735Z,19.70
2018-11-26T04:16:59.709Z,19.60
2018-11-26T04:17:59.690Z,18.40
2018-11-26T04:18:59.677Z,18.80
2018-11-26T04:19:59.668Z,20.10
2018-11-26T04:20:59.651Z,20.70
2018-11-26T04:21:59.649Z,18.70
2018-11-26T04:22:59.641Z,17.80
2018-11-26T04:23:59.656Z,19.30
2018-11-26T04:24:59.612Z,20.40
2018-11-26T04:25:59.619Z,18.70
2018-11-26T04:26:59.595Z,18.50
2018-11-26T04:27:59.578Z,19.50
2018-11-26T04:28:59.577Z,19.90
2018-11-26T04:29:59.561Z,20.00
2018-11-26T04:30:59.565Z,19.80
2018-11-26T04:31:59.578Z,18.50
2018-11-26T04:32:59.540Z,19.50
2018-11-26T04:33:59.525Z,19.90
2018-11-26T04:34:59.507Z,20.40
2018-11-26T04:35:59.490Z,17.90
2018-11-26T04:36:59.497Z,19.40
2018-11-26T04:37:59.485Z,21.10
2018-11-26T04:38:59.465Z,21.00
2018-11-26T04:39:59.450Z,22.10
2018-11-26T04:40:59.439Z,20.90
2018-11-26T04:41:59.434Z,20.00
2018-11-26T04:42:59.433Z,22.60
2018-11-26T04:43:59.408Z,20.80
2018-11-26T04:44:59.394Z,21.00
2018-11-26T04:45:59.385Z,20.20
2018-11-26T04:46:59.368Z,22.00
2018-11-26T04:47:59.374Z,19.70
2018-11-26T04:48:59.373Z,22.00
2018-11-26T04:49:59.347Z,20.90
2018-11-26T04:50:59.334Z,24.30
2018-11-26T04:51:59.328Z,19.70
2018-11-26T04:52:59.334Z,21.10
2018-11-26T04:53:59.296Z,22.40
2018-11-26T04:54:59.294Z,18.40
2018-11-26T04:55:59.279Z,20.20
2018-11-26T04:56:59.270Z,20.60
2018-11-26T04:57:59.256Z,20.00
2018-11-26T04:58:59.251Z,19.30
2018-11-26T04:59:59.234Z,22.20
2018-11-26T05:00:59.227Z,22.70
2018-11-26T05:01:59.239Z,23.00
2018-11-26T05:02:59.220Z,25.00
2018-11-26T05:03:59.207Z,22.00
2018-11-26T05:04:59.180Z,24.90
2018-11-26T05:05:59.167Z,22.00
2018-11-26T05:06:59.157Z,21.70
2018-11-26T05:07:59.147Z,23.80
2018-11-26T05:08:59.155Z,22.90
2018-11-26T05:09:59.136Z,23.30
2018-11-26T05:10:59.119Z,21.20
2018-11-26T05:11:59.121Z,25.20
2018-11-26T05:12:59.102Z,20.90
2018-11-26T05:13:59.103Z,22.70
2018-11-26T05:14:59.080Z,21.10
2018-11-26T05:15:59.064Z,21.90
2018-11-26T05:16:59.050Z,22.60
2018-11-26T05:17:59.037Z,25.90
2018-11-26T05:18:59.042Z,21.60
2018-11-26T05:19:59.027Z,22.20
2018-11-26T05:20:59.016Z,22.50
2018-11-26T05:21:59.007Z,22.80
2018-11-26T05:22:59.009Z,22.20
2018-11-26T05:23:58.981Z,26.50
2018-11-26T05:24:58.997Z,22.90
2018-11-26T05:25:58.955Z,22.40
2018-11-26T05:26:58.952Z,22.00
2018-11-26T05:27:58.937Z,22.10
2018-11-26T05:28:58.931Z,21.90
2018-11-26T05:29:58.910Z,22.00
2018-11-26T05:30:58.922Z,23.20
2018-11-26T05:31:58.893Z,22.30
2018-11-26T05:32:58.893Z,20.50
2018-11-26T05:33:58.880Z,21.70
2018-11-26T05:34:58.915Z,22.60
2018-11-26T05:35:58.883Z,24.50
2018-11-26T05:36:58.836Z,21.00
2018-11-26T05:37:58.830Z,23.90
2018-11-26T05:38:58.814Z,22.00
2018-11-26T05:39:58.805Z,22.80
2018-11-26T05:40:58.814Z,25.10
2018-11-26T05:41:58.790Z,22.80
2018-11-26T05:42:58.780Z,22.50
2018-11-26T05:43:58.761Z,24.40
2018-11-26T05:44:58.758Z,22.60
2018-11-26T05:45:58.746Z,22.30
2018-11-26T05:46:58.754Z,20.70
2018-11-26T05:47:58.725Z,23.40
2018-11-26T05:48:58.716Z,22.60
2018-11-26T05:49:58.696Z,22.20
2018-11-26T05:50:58.686Z,21.00
2018-11-26T05:51:58.691Z,20.60
2018-11-26T05:52:58.670Z,21.10
2018-11-26T05:53:58.664Z,22.40
2018-11-26T05:54:58.651Z,21.30
2018-11-26T05:55:58.665Z,21.60
2018-11-26T05:56:58.641Z,22.00
2018-11-26T05:57:58.616Z,19.70
2018-11-26T05:58:58.614Z,19.40
2018-11-26T05:59:58.596Z,19.30
2018-11-26T06:00:58.597Z,21.00
2018-11-26T06:01:58.579Z,18.90
2018-11-26T06:02:58.556Z,19.40
2018-11-26T06:03:58.553Z,19.70
2018-11-26T06:04:58.549Z,18.10
2018-11-26T06:05:58.545Z,17.90
2018-11-26T06:06:58.521Z,17.70
2018-11-26T06:07:58.521Z,18.50
2018-11-26T06:08:58.508Z,19.20
2018-11-26T06:09:58.485Z,19.20
2018-11-26T06:10:58.470Z,17.90
2018-11-26T06:11:58.479Z,17.60
2018-11-26T06:12:58.460Z,19.20
2018-11-26T06:13:58.446Z,18.40
2018-11-26T06:14:58.433Z,20.50
2018-11-26T06:15:58.418Z,21.40
2018-11-26T06:16:58.414Z,18.60
2018-11-26T06:17:58.427Z,19.70
2018-11-26T06:18:58.415Z,22.70
2018-11-26T06:19:58.392Z,21.90
2018-11-26T06:20:58.364Z,24.40
2018-11-26T06:21:58.353Z,23.00
2018-11-26T06:22:58.355Z,25.30
2018-11-26T06:23:58.341Z,22.30
2018-11-26T06:24:58.330Z,20.90
2018-11-26T06:25:58.320Z,17.90
2018-11-26T06:26:58.322Z,20.60
2018-11-26T06:27:58.302Z,17.90
2018-11-26T06:28:58.317Z,20.70
2018-11-26T06:29:58.275Z,20.00
2018-11-26T06:30:58.266Z,19.50
2018-11-26T06:31:58.286Z,19.30
2018-11-26T06:32:58.251Z,18.30
2018-11-26T06:33:58.264Z,18.40
2018-11-26T06:34:58.229Z,19.10
2018-11-26T06:35:58.213Z,18.80
2018-11-26T06:36:58.202Z,18.70
2018-11-26T06:37:58.189Z,19.80
2018-11-26T06:38:58.182Z,18.20
2018-11-26T06:39:58.165Z,18.70
2018-11-26T06:40:58.175Z,18.60
2018-11-26T06:41:58.136Z,18.40
2018-11-26T06:42:58.130Z,18.10
2018-11-26T06:43:58.118Z,21.10
2018-11-26T06:44:58.113Z,18.10
2018-11-26T06:45:58.104Z,17.50
2018-11-26T06:46:58.106Z,18.50
2018-11-26T06:47:58.082Z,17.00
2018-11-26T06:48:58.072Z,18.90
2018-11-26T06:49:58.063Z,18.10
2018-11-26T06:50:58.056Z,17.60
2018-11-26T06:51:58.040Z,18.40
2018-11-26T06:52:58.040Z,17.40
2018-11-26T06:53:58.020Z,17.50
2018-11-26T06:54:58.016Z,19.50
2018-11-26T06:55:57.995Z,20.00
2018-11-26T06:56:57.989Z,18.80
2018-11-26T06:57:57.978Z,18.40
2018-11-26T06:58:57.983Z,18.00
2018-11-26T06:59:57.952Z,16.50
2018-11-26T07:00:57.938Z,19.20
2018-11-26T07:01:57.927Z,15.30
2018-11-26T07:02:57.922Z,16.90
2018-11-26T07:03:57.924Z,17.30
2018-11-26T07:04:57.928Z,18.30
2018-11-26T07:05:57.885Z,18.00
2018-11-26T07:06:57.875Z,17.10
2018-11-26T07:07:57.862Z,17.20
2018-11-26T07:08:57.864Z,15.70
2018-11-26T07:09:57.863Z,15.70
2018-11-26T07:10:57.836Z,16.80
2018-11-26T07:11:57.828Z,16.40
2018-11-26T07:12:57.809Z,15.80
2018-11-26T07:13:57.807Z,14.10
2018-11-26T07:14:57.805Z,16.90
2018-11-26T07:15:57.779Z,14.50
2018-11-26T07:16:57.772Z,16.40
2018-11-26T07:17:57.781Z,14.70
2018-11-26T07:18:57.742Z,16.20
2018-11-26T07:19:57.755Z,15.00
2018-11-26T07:20:57.730Z,15.20
2018-11-26T07:21:57.745Z,16.10
2018-11-26T07:22:57.713Z,16.00
2018-11-26T07:23:57.697Z,16.20
2018-11-26T07:24:57.699Z,13.60
2018-11-26T07:25:57.668Z,14.40
2018-11-26T07:26:57.657Z,14.00
2018-11-26T07:27:57.668Z,14.90
2018-11-26T07:28:57.643Z,14.80
2018-11-26T07:29:57.650Z,14.20
2018-11-26T07:30:57.663Z,13.70
2018-11-26T07:31:57.612Z,15.50
2018-11-26T07:32:57.595Z,14.70
2018-11-26T07:33:57.601Z,14.10
2018-11-26T07:34:57.596Z,13.80
2018-11-26T07:35:57.565Z,14.70
2018-11-26T07:36:57.568Z,15.50
2018-11-26T07:37:57.540Z,17.40
2018-11-26T07:38:57.530Z,15.70
2018-11-26T07:39:57.537Z,15.40
2018-11-26T07:40:57.521Z,16.30
2018-11-26T07:41:57.504Z,15.00
2018-11-26T07:42:57.495Z,15.50
2018-11-26T07:43:57.484Z,15.30
2018-11-26T07:44:57.491Z,17.50
2018-11-26T07:45:57.455Z,17.70
2018-11-26T07:46:57.454Z,17.00
2018-11-26T07:47:57.463Z,17.40
2018-11-26T07:48:57.458Z,15.80
2018-11-26T07:49:57.445Z,16.50
2018-11-26T07:50:57.474Z,16.30
2018-11-26T07:51:57.394Z,19.40
2018-11-26T07:52:57.400Z,17.00
2018-11-26T07:53:57.389Z,19.00
2018-11-26T07:54:57.367Z,16.10
2018-11-26T07:55:57.354Z,17.30
2018-11-26T07:56:57.341Z,16.50
2018-11-26T07:57:57.331Z,16.60
2018-11-26T07:58:57.335Z,17.60
2018-11-26T07:59:57.310Z,18.00
2018-11-26T08:00:57.302Z,17.60
2018-11-26T08:01:57.296Z,25.40
2018-11-26T08:02:57.283Z,16.80
2018-11-26T08:03:57.319Z,17.00
2018-11-26T08:04:57.260Z,20.70
2018-11-26T08:05:57.266Z,18.50
2018-11-26T08:06:57.241Z,19.10
2018-11-26T08:07:57.251Z,17.90
2018-11-26T08:08:57.250Z,17.50
2018-11-26T08:09:57.207Z,18.80
2018-11-26T08:10:57.193Z,18.50
2018-11-26T08:11:57.183Z,16.60
2018-11-26T08:12:57.176Z,15.80
2018-11-26T08:13:57.229Z,17.70
2018-11-26T08:14:57.155Z,17.90
2018-11-26T08:15:57.153Z,16.00
2018-11-26T08:16:57.127Z,18.20
2018-11-26T08:17:57.116Z,17.50
2018-11-26T08:18:57.117Z,18.20
2018-11-26T08:19:57.096Z,15.30
2018-11-26T08:20:57.089Z,16.90
2018-11-26T08:21:57.085Z,16.40
2018-11-26T08:22:57.063Z,15.70
2018-11-26T08:23:57.093Z,17.70
2018-11-26T08:24:57.046Z,16.50
2018-11-26T08:25:57.040Z,18.00
2018-11-26T08:26:57.049Z,16.60
2018-11-26T08:27:57.026Z,20.20
2018-11-26T08:28:57.009Z,17.70
2018-11-26T08:29:56.986Z,15.30
2018-11-26T08:30:56.987Z,18.20
2018-11-26T08:31:56.976Z,20.00
2018-11-26T08:32:56.959Z,17.80
2018-11-26T08:33:56.972Z,17.10
2018-11-26T08:34:56.966Z,18.80
2018-11-26T08:35:56.926Z,18.30
2018-11-26T08:36:56.935Z,16.30
2018-11-26T08:37:56.922Z,16.90
2018-11-26T08:38:56.893Z,18.20
2018-11-26T08:39:56.884Z,18.40
2018-11-26T08:40:56.892Z,18.10
2018-11-26T08:41:56.885Z,16.40
2018-11-26T08:42:56.856Z,16.10
2018-11-26T08:43:56.841Z,19.90
2018-11-26T08:44:56.831Z,21.10
2018-11-26T08:45:56.824Z,18.70
2018-11-26T08:46:56.831Z,23.00
2018-11-26T08:47:56.800Z,21.30
2018-11-26T08:48:56.791Z,22.80
2018-11-26T08:49:56.785Z,26.30
2018-11-26T08:50:56.788Z,20.60
2018-11-26T08:51:56.757Z,24.50
2018-11-26T08:52:56.750Z,22.60
2018-11-26T08:53:56.735Z,23.30
2018-11-26T08:54:56.728Z,26.90
2018-11-26T08:55:56.725Z,24.20
2018-11-26T08:56:56.706Z,26.80
2018-11-26T08:57:56.711Z,23.10
2018-11-26T08:58:56.677Z,23.20
2018-11-26T08:59:56.673Z,22.50
2018-11-26T09:00:56.672Z,23.10
2018-11-26T09:01:56.652Z,24.00
2018-11-26T09:02:56.657Z,25.60
2018-11-26T09:03:56.647Z,26.60
2018-11-26T09:04:56.647Z,24.70
2018-11-26T09:05:56.612Z,22.60
2018-11-26T09:06:56.596Z,25.00
2018-11-26T09:07:56.615Z,24.00
2018-11-26T09:08:56.573Z,23.60
2018-11-26T09:09:56.570Z,25.70
2018-11-26T09:10:56.605Z,25.40
2018-11-26T09:11:56.580Z,23.80
2018-11-26T09:12:56.544Z,21.10
2018-11-26T09:13:56.533Z,23.60
2018-11-26T09:14:56.517Z,26.10
2018-11-26T09:15:56.501Z,20.80
2018-11-26T09:16:56.517Z,23.20
2018-11-26T09:17:56.496Z,26.10
2018-11-26T09:18:56.462Z,25.20
2018-11-26T09:19:56.455Z,23.20
2018-11-26T09:20:56.463Z,25.60
2018-11-26T09:21:56.458Z,25.30
2018-11-26T09:22:56.428Z,23.20
2018-11-26T09:23:56.413Z,23.10
2018-11-26T09:24:56.406Z,23.60
2018-11-26T09:25:56.392Z,21.60
2018-11-26T09:26:56.401Z,24.50
2018-11-26T09:27:56.372Z,22.50
2018-11-26T09:28:56.362Z,24.90
2018-11-26T09:29:56.347Z,23.20
2018-11-26T09:30:56.371Z,22.00
2018-11-26T09:31:56.339Z,23.00
2018-11-26T09:32:56.325Z,23.00
2018-11-26T09:33:56.327Z,21.70
2018-11-26T09:34:56.298Z,24.70
2018-11-26T09:35:56.289Z,21.40
2018-11-26T09:36:56.286Z,24.20
2018-11-26T09:37:56.280Z,25.50
2018-11-26T09:38:56.249Z,22.40
2018-11-26T09:39:56.246Z,21.70
2018-11-26T09:40:56.232Z,23.30
2018-11-26T09:41:56.231Z,23.00
2018-11-26T09:42:56.207Z,24.00
2018-11-26T09:43:56.235Z,25.70
2018-11-26T09:44:56.190Z,26.90
2018-11-26T09:45:56.183Z,24.00
2018-11-26T09:46:56.170Z,22.90
2018-11-26T09:47:56.177Z,23.70
2018-11-26T09:48:56.145Z,22.00
2018-11-26T09:49:56.149Z,22.80
2018-11-26T09:50:56.119Z,25.50
2018-11-26T09:51:56.111Z,30.80
2018-11-26T09:52:56.104Z,27.70
2018-11-26T09:53:56.138Z,26.00
2018-11-26T09:54:56.086Z,25.60
2018-11-26T09:55:56.093Z,25.50
2018-11-26T09:56:56.060Z,25.60
2018-11-26T09:57:56.056Z,27.50
2018-11-26T09:58:56.045Z,23.10
2018-11-26T09:59:56.033Z,23.40
2018-11-26T10:00:56.026Z,22.40
2018-11-26T10:01:56.005Z,21.00
2018-11-26T10:02:55.991Z,23.70
2018-11-26T10:03:55.999Z,23.90
2018-11-26T10:04:55.975Z,21.90
2018-11-26T10:05:55.966Z,21.30
2018-11-26T10:06:55.968Z,24.00
2018-11-26T10:07:55.943Z,21.30
2018-11-26T10:08:55.930Z,21.90
2018-11-26T10:09:55.929Z,22.50
2018-11-26T10:10:55.920Z,22.00
2018-11-26T10:11:55.897Z,20.20
2018-11-26T10:12:55.894Z,21.70
2018-11-26T10:13:55.882Z,22.70
2018-11-26T10:14:55.877Z,19.60
2018-11-26T10:15:55.854Z,22.30
2018-11-26T10:16:55.875Z,22.80
2018-11-26T10:17:55.837Z,24.20
2018-11-26T10:18:55.830Z,24.50
2018-11-26T10:19:55.836Z,20.90
2018-11-26T10:20:55.801Z,22.20
2018-11-26T10:21:55.814Z,23.90
2018-11-26T10:22:55.779Z,21.40
2018-11-26T10:23:55.770Z,23.50
2018-11-26T10:24:55.763Z,22.00
2018-11-26T10:25:55.753Z,22.80
2018-11-26T10:26:55.744Z,21.30
2018-11-26T10:27:55.748Z,25.80
2018-11-26T10:28:55.723Z,21.80
2018-11-26T10:29:55.720Z,21.80
2018-11-26T10:30:55.716Z,22.10
2018-11-26T10:31:55.689Z,23.40
2018-11-26T10:32:55.678Z,19.80
2018-11-26T10:33:55.662Z,23.70
2018-11-26T10:34:55.647Z,22.10
2018-11-26T10:35:55.675Z,21.40
2018-11-26T10:36:55.633Z,23.00
2018-11-26T10:37:55.624Z,22.70
2018-11-26T10:38:55.626Z,20.90
2018-11-26T10:39:55.632Z,19.50
2018-11-26T10:40:55.589Z,20.50
2018-11-26T10:41:55.577Z,21.80
2018-11-26T10:42:55.563Z,23.30
2018-11-26T10:43:55.556Z,20.30
2018-11-26T10:44:55.550Z,24.00
2018-11-26T10:45:55.552Z,22.20
2018-11-26T10:46:55.542Z,22.40
2018-11-26T10:47:55.518Z,25.70
2018-11-26T10:48:55.514Z,21.70
2018-11-26T10:49:55.495Z,20.80
2018-11-26T10:50:55.502Z,21.90
2018-11-26T10:51:55.468Z,21.20
2018-11-26T10:52:55.481Z,22.60
2018-11-26T10:53:55.447Z,22.40
2018-11-26T10:54:55.437Z,23.70
2018-11-26T10:55:55.440Z,22.30
2018-11-26T10:56:55.435Z,22.60
2018-11-26T10:57:55.412Z,21.60
2018-11-26T10:58:55.395Z,21.60
2018-11-26T10:59:55.396Z,20.20
2018-11-26T11:00:55.413Z,21.10
2018-11-26T11:01:55.380Z,22.40
2018-11-26T11:02:55.854Z,19.40
2018-11-26T11:03:55.363Z,23.50
2018-11-26T11:04:55.371Z,23.80
2018-11-26T11:05:55.328Z,22.20
2018-11-26T11:06:55.784Z,22.90
2018-11-26T11:07:55.336Z,21.10
2018-11-26T11:08:55.330Z,24.00
2018-11-26T11:09:55.295Z,22.80
2018-11-26T11:10:55.271Z,20.70
2018-11-26T11:11:55.258Z,22.40
2018-11-26T11:12:55.269Z,21.60
2018-11-26T11:13:55.248Z,21.60
2018-11-26T11:14:55.231Z,22.10
2018-11-26T11:15:55.270Z,21.40
2018-11-26T11:16:55.218Z,23.20
2018-11-26T11:17:55.234Z,24.00
2018-11-26T11:18:55.183Z,21.40
2018-11-26T11:19:55.179Z,24.80
2018-11-26T11:20:55.182Z,21.70
2018-11-26T11:21:55.223Z,22.20
2018-11-26T11:22:55.141Z,22.50
2018-11-26T11:23:55.137Z,22.00
2018-11-26T11:24:55.114Z,22.70
2018-11-26T11:25:55.121Z,22.90
2018-11-26T11:26:55.110Z,23.70
2018-11-26T11:27:56.338Z,23.80
2018-11-26T11:28:55.084Z,21.90
2018-11-26T11:29:55.067Z,23.20
2018-11-26T11:30:55.056Z,21.90
2018-11-26T11:31:55.070Z,19.40
2018-11-26T11:32:55.034Z,21.20
2018-11-26T11:33:55.066Z,21.40
2018-11-26T11:34:55.012Z,20.60
2018-11-26T11:35:55.010Z,20.90
2018-11-26T11:36:54.983Z,21.50
2018-11-26T11:37:54.999Z,23.00
2018-11-26T11:38:54.985Z,22.80
2018-11-26T11:39:54.958Z,23.50
2018-11-26T11:40:54.978Z,23.00
2018-11-26T11:41:54.939Z,24.70
2018-11-26T11:42:54.927Z,19.00
2018-11-26T11:43:54.923Z,21.00
2018-11-26T11:44:54.898Z,21.70
2018-11-26T11:45:54.893Z,24.30
2018-11-26T11:46:54.895Z,23.80
2018-11-26T11:47:54.872Z,23.30
2018-11-26T11:48:54.884Z,20.60
2018-11-26T11:49:54.848Z,23.00
2018-11-26T11:50:54.848Z,26.40
2018-11-26T11:51:54.839Z,24.20
2018-11-26T11:52:54.825Z,22.80
2018-11-26T11:53:54.813Z,23.80
2018-11-26T11:54:54.799Z,22.20
2018-11-26T11:55:54.793Z,23.10
2018-11-26T11:56:54.777Z,23.90
2018-11-26T11:57:54.771Z,24.40
2018-11-26T11:58:54.750Z,23.20
2018-11-26T11:59:54.753Z,22.60
2018-11-26T12:00:54.757Z,22.50
2018-11-26T12:01:54.745Z,23.90
2018-11-26T12:02:54.714Z,23.40
2018-11-26T12:03:54.708Z,23.00
2018-11-26T12:04:54.697Z,23.60
2018-11-26T12:05:54.686Z,22.60
2018-11-26T12:06:54.675Z,21.10
2018-11-26T12:07:54.655Z,22.70
2018-11-26T12:08:54.645Z,27.80
2018-11-26T12:09:54.646Z,22.30
2018-11-26T12:10:54.629Z,25.90
2018-11-26T12:11:54.633Z,24.40
2018-11-26T12:12:54.614Z,24.10
2018-11-26T12:13:54.612Z,23.00
2018-11-26T12:14:54.585Z,24.10
2018-11-26T12:15:54.575Z,21.70
2018-11-26T12:16:54.557Z,21.20
2018-11-26T12:17:54.546Z,21.40
2018-11-26T12:18:54.537Z,22.50
2018-11-26T12:19:54.541Z,25.60
2018-11-26T12:20:54.534Z,24.60
2018-11-26T12:21:54.506Z,22.20
2018-11-26T12:22:54.496Z,20.20
2018-11-26T12:23:54.488Z,22.60
2018-11-26T12:24:54.508Z,22.00
2018-11-26T12:25:54.488Z,21.60
2018-11-26T12:26:54.460Z,23.90
2018-11-26T12:27:54.443Z,20.30
2018-11-26T12:28:54.428Z,23.20
2018-11-26T12:29:54.417Z,22.50
2018-11-26T12:30:54.422Z,22.70
2018-11-26T12:31:54.400Z,24.60
2018-11-26T12:32:54.397Z,20.90
2018-11-26T12:33:54.387Z,23.60
2018-11-26T12:34:54.393Z,21.20
2018-11-26T12:35:54.377Z,25.20
2018-11-26T12:36:57.815Z,22.60
2018-11-26T12:37:54.347Z,22.60
2018-11-26T12:38:54.372Z,22.40
2018-11-26T12:39:54.313Z,21.00
2018-11-26T12:40:54.322Z,20.90
2018-11-26T12:41:54.301Z,21.00
2018-11-26T12:42:54.284Z,22.90
2018-11-26T12:43:54.281Z,21.30
2018-11-26T12:44:54.272Z,20.20
2018-11-26T12:45:54.252Z,21.50
2018-11-26T12:46:54.258Z,22.80
2018-11-26T12:47:54.239Z,24.80
2018-11-26T12:48:54.220Z,21.50
2018-11-26T12:49:54.209Z,25.60
2018-11-26T12:50:54.193Z,21.50
2018-11-26T12:51:54.205Z,22.70